createdAt,value
2018-09-25T00:01:52.000Z,3.80
2018-09-25T00:03:59.881Z,3.90
2018-09-25T00:06:07.912Z,3.00
2018-09-25T00:08:15.836Z,3.40
2018-09-25T00:10:23.720Z,3.13
2018-09-25T00:12:31.377Z,3.63
2018-09-25T00:14:39.222Z,3.10
2018-09-25T00:16:47.120Z,3.23
2018-09-25T00:18:54.816Z,3.40
2018-09-25T00:21:02.737Z,2.87
2018-09-25T00:23:10.628Z,2.80
2018-09-25T00:25:18.586Z,3.47
2018-09-25T00:27:26.564Z,3.37
2018-09-25T00:29:34.472Z,2.97
2018-09-25T00:31:42.434Z,2.60
2018-09-25T00:33:50.218Z,2.70
2018-09-25T00:35:58.057Z,2.97
2018-09-25T00:38:05.925Z,3.07
2018-09-25T00:40:13.837Z,3.57
2018-09-25T00:42:21.601Z,3.40
2018-09-25T00:44:29.404Z,4.00
2018-09-25T00:46:37.308Z,2.70
2018-09-25T00:48:45.163Z,3.40
2018-09-25T00:50:53.100Z,3.40
2018-09-25T00:53:00.972Z,3.27
2018-09-25T00:55:08.809Z,2.87
2018-09-25T00:57:16.759Z,3.43
2018-09-25T00:59:24.658Z,2.77
2018-09-25T01:01:32.597Z,3.13
2018-09-25T01:03:40.465Z,3.40
2018-09-25T01:05:48.416Z,3.20
2018-09-25T01:07:56.290Z,2.43
2018-09-25T01:10:04.024Z,3.20
2018-09-25T01:12:11.948Z,3.10
2018-09-25T01:14:19.957Z,3.30
2018-09-25T01:16:27.928Z,2.97
2018-09-25T01:18:35.803Z,3.47
2018-09-25T01:20:43.669Z,3.13
2018-09-25T01:22:51.508Z,3.20
2018-09-25T01:24:59.392Z,3.70
2018-09-25T01:27:07.208Z,3.23
2018-09-25T01:29:14.985Z,3.50
2018-09-25T01:31:22.867Z,2.83
2018-09-25T01:33:30.767Z,3.00
2018-09-25T01:35:38.589Z,2.87
2018-09-25T01:37:46.528Z,4.10
2018-09-25T01:39:54.324Z,2.83
2018-09-25T01:42:02.244Z,3.33
2018-09-25T01:44:10.129Z,3.17
2018-09-25T01:46:17.975Z,3.20
2018-09-25T01:48:25.793Z,3.37
2018-09-25T01:50:33.680Z,3.30
2018-09-25T01:52:41.468Z,3.00
2018-09-25T01:54:49.497Z,2.83
2018-09-25T01:56:57.417Z,3.13
2018-09-25T01:59:05.269Z,3.70
2018-09-25T02:01:13.062Z,3.23
2018-09-25T02:03:20.957Z,3.50
2018-09-25T02:05:28.859Z,2.90
2018-09-25T02:07:36.647Z,3.20
2018-09-25T02:09:44.404Z,3.20
2018-09-25T02:11:52.249Z,4.00
2018-09-25T02:14:00.125Z,4.17
2018-09-25T02:16:08.088Z,2.87
2018-09-25T02:18:15.913Z,3.60
2018-09-25T02:20:23.841Z,3.27
2018-09-25T02:22:31.742Z,3.63
2018-09-25T02:24:39.516Z,3.40
2018-09-25T02:26:47.410Z,3.00
2018-09-25T02:28:55.244Z,3.50
2018-09-25T02:31:02.993Z,3.37
2018-09-25T02:33:10.849Z,4.13
2018-09-25T02:35:18.518Z,3.90
2018-09-25T02:37:26.440Z,3.70
2018-09-25T02:39:34.409Z,4.53
2018-09-25T02:41:42.107Z,3.70
2018-09-25T02:43:50.013Z,3.27
2018-09-25T02:45:57.893Z,3.90
2018-09-25T02:48:05.789Z,4.10
2018-09-25T02:50:13.657Z,3.63
2018-09-25T02:52:21.514Z,3.40
2018-09-25T02:54:29.404Z,3.53
2018-09-25T02:56:37.302Z,4.20
2018-09-25T02:58:45.133Z,4.03
2018-09-25T03:00:52.874Z,4.10
2018-09-25T03:03:00.790Z,4.87
2018-09-25T03:05:08.579Z,3.77
2018-09-25T03:07:16.511Z,3.70
2018-09-25T03:09:24.288Z,4.40
2018-09-25T03:11:31.988Z,4.73
2018-09-25T03:13:39.844Z,3.60
2018-09-25T03:15:47.656Z,3.87
2018-09-25T03:17:55.508Z,4.23
2018-09-25T03:20:03.321Z,4.33
2018-09-25T03:22:11.100Z,4.00
2018-09-25T03:24:18.930Z,4.97
2018-09-25T03:26:26.637Z,3.83
2018-09-25T03:28:34.308Z,3.80
2018-09-25T03:30:42.165Z,3.90
2018-09-25T03:32:50.032Z,3.93
2018-09-25T03:34:57.808Z,3.70
2018-09-25T03:37:05.569Z,3.70
2018-09-25T03:39:13.484Z,3.73
2018-09-25T03:41:21.294Z,3.77
2018-09-25T03:43:29.134Z,3.70
2018-09-25T03:45:37.122Z,4.10
2018-09-25T03:47:44.909Z,4.70
2018-09-25T03:49:52.644Z,4.27
2018-09-25T03:52:00.550Z,3.80
2018-09-25T03:54:08.520Z,4.30
2018-09-25T03:56:16.364Z,4.30
2018-09-25T03:58:24.260Z,4.50
2018-09-25T04:00:32.172Z,4.63
2018-09-25T04:02:40.032Z,4.50
2018-09-25T04:04:47.923Z,4.23
2018-09-25T04:06:55.618Z,4.70
2018-09-25T04:09:03.464Z,5.03
2018-09-25T04:11:11.346Z,5.47
2018-09-25T04:13:19.172Z,4.03
2018-09-25T04:15:27.030Z,4.53
2018-09-25T04:17:34.881Z,5.07
2018-09-25T04:19:42.800Z,5.70
2018-09-25T04:21:50.674Z,5.30
2018-09-25T04:23:58.505Z,5.80
2018-09-25T04:26:06.437Z,5.00
2018-09-25T04:28:14.373Z,4.60
2018-09-25T04:30:22.201Z,5.30
2018-09-25T04:32:30.028Z,4.30
2018-09-25T04:34:37.996Z,5.97
2018-09-25T04:36:45.856Z,5.70
2018-09-25T04:38:53.578Z,5.50
2018-09-25T04:41:01.601Z,5.47
2018-09-25T04:43:09.437Z,4.90
2018-09-25T04:45:17.384Z,5.63
2018-09-25T04:47:25.219Z,5.70
2018-09-25T04:49:33.069Z,5.63
2018-09-25T04:51:41.027Z,5.40
2018-09-25T04:53:48.893Z,5.53
2018-09-25T04:55:56.813Z,6.13
2018-09-25T04:58:04.590Z,5.60
2018-09-25T05:00:12.473Z,5.53
2018-09-25T05:02:20.341Z,5.23
2018-09-25T05:04:28.092Z,5.70
2018-09-25T05:06:35.994Z,5.30
2018-09-25T05:08:43.937Z,6.57
2018-09-25T05:10:51.775Z,5.90
2018-09-25T05:12:59.678Z,5.03
2018-09-25T05:15:07.521Z,5.60
2018-09-25T05:17:15.303Z,5.60
2018-09-25T05:19:23.098Z,5.87
2018-09-25T05:21:30.920Z,5.43
2018-09-25T05:23:38.977Z,5.10
2018-09-25T05:25:46.913Z,5.33
2018-09-25T05:27:54.828Z,5.40
2018-09-25T05:30:02.857Z,6.50
2018-09-25T05:32:10.980Z,4.90
2018-09-25T05:34:19.080Z,5.67
2018-09-25T05:36:26.947Z,5.17
2018-09-25T05:38:34.845Z,4.70
2018-09-25T05:40:43.025Z,5.47
2018-09-25T05:42:51.000Z,5.97
2018-09-25T05:44:58.901Z,4.97
2018-09-25T05:47:06.781Z,5.87
2018-09-25T05:49:14.665Z,5.50
2018-09-25T05:51:22.591Z,5.77
2018-09-25T05:53:30.551Z,4.73
2018-09-25T05:55:38.766Z,5.40
2018-09-25T05:57:46.657Z,4.90
2018-09-25T05:59:54.641Z,5.40
2018-09-25T06:02:02.801Z,4.83
2018-09-25T06:04:11.669Z,5.00
2018-09-25T06:06:20.181Z,5.20
2018-09-25T06:08:28.445Z,4.90
2018-09-25T06:10:36.389Z,5.00
2018-09-25T06:12:44.353Z,4.93
2018-09-25T06:14:52.322Z,5.37
2018-09-25T06:17:00.443Z,5.77
2018-09-25T06:19:08.401Z,5.13
2018-09-25T06:21:16.427Z,4.73
2018-09-25T06:23:24.394Z,4.30
2018-09-25T06:25:33.047Z,5.03
2018-09-25T06:27:40.921Z,4.90
2018-09-25T06:29:48.964Z,5.00
2018-09-25T06:31:57.157Z,5.27
2018-09-25T06:34:05.377Z,4.43
2018-09-25T06:36:14.998Z,4.50
2018-09-25T06:38:23.003Z,4.80
2018-09-25T06:40:31.085Z,4.10
2018-09-25T06:42:39.484Z,5.17
2018-09-25T06:44:47.760Z,4.90
2018-09-25T06:46:56.164Z,4.40
2018-09-25T06:49:04.569Z,4.40
2018-09-25T06:51:13.087Z,4.50
2018-09-25T06:53:21.424Z,4.00
2018-09-25T06:55:29.550Z,3.70
2018-09-25T06:57:37.664Z,4.07
2018-09-25T06:59:45.753Z,3.17
2018-09-25T07:01:53.793Z,3.40
2018-09-25T07:04:01.810Z,3.83
2018-09-25T07:06:10.247Z,4.67
2018-09-25T07:08:18.213Z,4.13
2018-09-25T07:10:26.575Z,3.83
2018-09-25T07:12:34.565Z,4.03
2018-09-25T07:14:42.782Z,4.00
2018-09-25T07:16:50.806Z,6.10
2018-09-25T07:18:58.863Z,4.13
2018-09-25T07:21:07.703Z,3.90
2018-09-25T07:23:16.506Z,3.90
2018-09-25T07:25:24.744Z,5.07
2018-09-25T07:27:32.747Z,4.27
2018-09-25T07:29:40.605Z,4.10
2018-09-25T07:31:48.688Z,5.13
2018-09-25T07:33:56.790Z,4.00
2018-09-25T07:36:04.730Z,4.70
2018-09-25T07:38:12.765Z,4.37
2018-09-25T07:40:20.703Z,4.77
2018-09-25T07:42:28.761Z,4.20
2018-09-25T07:44:36.848Z,5.17
2018-09-25T07:46:45.402Z,4.13
2018-09-25T07:48:53.523Z,4.50
2018-09-25T07:51:01.802Z,4.77
2018-09-25T07:53:09.933Z,5.27
2018-09-25T07:55:17.909Z,4.70
2018-09-25T07:57:26.090Z,4.37
2018-09-25T07:59:34.297Z,3.80
2018-09-25T08:01:42.343Z,4.47
2018-09-25T08:03:50.933Z,4.27
2018-09-25T08:05:58.876Z,4.73
2018-09-25T08:08:07.340Z,4.40
2018-09-25T08:10:15.193Z,4.83
2018-09-25T08:12:23.233Z,4.90
2018-09-25T08:14:31.486Z,4.80
2018-09-25T08:16:39.625Z,5.07
2018-09-25T08:18:48.069Z,4.30
2018-09-25T08:20:56.513Z,4.50
2018-09-25T08:23:07.602Z,4.77
2018-09-25T08:25:25.861Z,4.50
2018-09-25T08:27:34.550Z,4.70
2018-09-25T08:29:43.772Z,4.60
2018-09-25T08:31:52.100Z,4.27
2018-09-25T08:34:02.251Z,3.67
2018-09-25T08:36:10.477Z,4.10
2018-09-25T08:38:19.045Z,4.17
2018-09-25T08:40:34.266Z,2.93
2018-09-25T08:42:42.523Z,4.37
2018-09-25T08:44:50.589Z,3.80
2018-09-25T08:46:58.801Z,3.50
2018-09-25T08:49:06.644Z,3.27
2018-09-25T08:51:14.494Z,3.93
2018-09-25T08:53:22.408Z,3.27
2018-09-25T08:55:30.932Z,3.17
2018-09-25T08:57:39.091Z,3.30
2018-09-25T08:59:48.320Z,3.40
2018-09-25T09:01:58.252Z,3.37
2018-09-25T09:04:06.586Z,2.80
2018-09-25T09:06:26.527Z,2.70
2018-09-25T09:08:35.902Z,3.10
2018-09-25T09:10:49.424Z,2.87
2018-09-25T09:12:57.919Z,2.80
2018-09-25T09:15:06.934Z,2.70
2018-09-25T09:17:15.097Z,3.10
2018-09-25T09:19:23.302Z,2.87
2018-09-25T09:21:31.400Z,3.20
2018-09-25T09:23:39.389Z,2.80
2018-09-25T09:25:47.363Z,3.13
2018-09-25T09:27:55.358Z,2.30
2018-09-25T09:30:03.379Z,3.87
2018-09-25T09:32:11.299Z,2.60
2018-09-25T09:34:19.339Z,3.53
2018-09-25T09:36:27.258Z,3.40
2018-09-25T09:38:35.266Z,2.27
2018-09-25T09:40:43.076Z,2.40
2018-09-25T09:42:50.953Z,2.87
2018-09-25T09:44:59.104Z,2.80
2018-09-25T09:47:07.069Z,2.30
2018-09-25T09:49:15.061Z,2.70
2018-09-25T09:51:23.086Z,2.30
2018-09-25T09:53:31.089Z,2.63
2018-09-25T09:55:38.988Z,2.50
2018-09-25T09:57:46.898Z,2.50
2018-09-25T09:59:54.787Z,2.60
2018-09-25T10:02:02.870Z,2.70
2018-09-25T10:04:11.222Z,2.17
2018-09-25T10:06:19.440Z,2.50
2018-09-25T10:08:27.854Z,2.17
2018-09-25T10:10:35.853Z,2.27
2018-09-25T10:12:44.036Z,2.50
2018-09-25T10:14:52.210Z,2.50
2018-09-25T10:17:01.467Z,2.80
2018-09-25T10:19:09.434Z,2.87
2018-09-25T10:21:17.543Z,2.73
2018-09-25T10:23:25.420Z,2.70
2018-09-25T10:25:33.340Z,2.40
2018-09-25T10:27:41.241Z,2.50
2018-09-25T10:29:49.063Z,2.90
2018-09-25T10:31:57.026Z,3.00
2018-09-25T10:34:04.885Z,2.70
2018-09-25T10:36:12.703Z,2.90
2018-09-25T10:38:20.718Z,2.57
2018-09-25T10:40:28.557Z,2.67
2018-09-25T10:42:36.358Z,2.83
2018-09-25T10:44:44.110Z,3.10
2018-09-25T10:46:52.057Z,3.13
2018-09-25T10:48:59.922Z,2.53
2018-09-25T10:51:07.829Z,2.40
2018-09-25T10:53:15.742Z,2.80
2018-09-25T10:55:23.696Z,3.03
2018-09-25T10:57:31.589Z,2.60
2018-09-25T10:59:39.509Z,2.43
2018-09-25T11:01:47.461Z,3.00
2018-09-25T11:04:02.402Z,3.07
2018-09-25T11:06:10.345Z,2.67
2018-09-25T11:08:18.251Z,2.77
2018-09-25T11:10:26.106Z,2.73
2018-09-25T11:12:33.969Z,2.37
2018-09-25T11:14:41.920Z,2.40
2018-09-25T11:16:49.849Z,2.60
2018-09-25T11:18:57.769Z,2.30
2018-09-25T11:21:05.733Z,2.50
2018-09-25T11:23:13.642Z,2.83
2018-09-25T11:25:29.750Z,2.73
2018-09-25T11:27:38.940Z,3.03
2018-09-25T11:29:46.761Z,2.30
2018-09-25T11:31:57.810Z,2.63
2018-09-25T11:34:07.073Z,2.80
2018-09-25T11:36:18.756Z,2.00
2018-09-25T11:38:26.553Z,2.40
2018-09-25T11:40:37.389Z,2.47
2018-09-25T11:42:45.652Z,2.07
2018-09-25T11:44:53.513Z,2.20
2018-09-25T11:47:02.186Z,2.27
2018-09-25T11:49:10.635Z,2.13
2018-09-25T11:51:19.529Z,2.17
2018-09-25T11:53:29.702Z,2.17
2018-09-25T11:55:39.621Z,1.80
2018-09-25T11:57:50.018Z,2.10
2018-09-25T12:00:02.118Z,2.20
2018-09-25T12:02:11.053Z,2.40
2018-09-25T12:04:18.905Z,1.87
2018-09-25T12:06:26.820Z,2.53
2018-09-25T12:08:34.670Z,2.67
2018-09-25T12:10:43.561Z,2.50
2018-09-25T12:12:51.350Z,2.20
2018-09-25T12:14:59.608Z,2.10
2018-09-25T12:17:07.613Z,2.17
2018-09-25T12:19:16.282Z,1.90
2018-09-25T12:21:26.159Z,2.17
2018-09-25T12:23:34.093Z,2.43
2018-09-25T12:25:42.154Z,2.67
2018-09-25T12:27:50.062Z,2.30
2018-09-25T12:29:58.913Z,2.20
2018-09-25T12:32:08.474Z,2.20
2018-09-25T12:34:16.499Z,2.20
2018-09-25T12:36:24.301Z,2.33
2018-09-25T12:38:32.490Z,2.13
2018-09-25T12:40:43.835Z,1.93
2018-09-25T12:42:52.102Z,2.63
2018-09-25T12:45:00.205Z,1.90
2018-09-25T12:47:08.062Z,2.20
2018-09-25T12:49:15.930Z,2.50
2018-09-25T12:51:24.727Z,2.00
2018-09-25T12:53:32.509Z,1.70
2018-09-25T12:55:40.433Z,1.90
2018-09-25T12:57:48.183Z,1.80
2018-09-25T12:59:57.741Z,1.80
2018-09-25T13:02:06.752Z,1.70
2018-09-25T13:04:16.848Z,1.90
2018-09-25T13:06:25.657Z,2.07
2018-09-25T13:08:33.477Z,2.00
2018-09-25T13:10:43.025Z,1.93
2018-09-25T13:12:52.053Z,1.73
2018-09-25T13:14:59.915Z,1.90
2018-09-25T13:17:08.781Z,2.00
2018-09-25T13:19:16.574Z,2.00
2018-09-25T13:21:24.349Z,1.77
2018-09-25T13:23:32.141Z,1.90
2018-09-25T13:25:41.319Z,2.50
2018-09-25T13:27:49.210Z,2.30
2018-09-25T13:29:57.138Z,2.00
2018-09-25T13:32:04.971Z,2.20
2018-09-25T13:34:12.833Z,1.80
2018-09-25T13:36:20.649Z,2.20
2018-09-25T13:38:28.525Z,2.40
2018-09-25T13:40:36.415Z,2.20
2018-09-25T13:42:44.350Z,1.83
2018-09-25T13:44:52.297Z,2.00
2018-09-25T13:47:01.674Z,2.13
2018-09-25T13:49:09.913Z,2.20
2018-09-25T13:51:17.849Z,1.90
2018-09-25T13:53:25.830Z,1.80
2018-09-25T13:55:34.278Z,1.90
2018-09-25T13:57:43.643Z,2.20
2018-09-25T13:59:57.693Z,2.00
2018-09-25T14:02:21.023Z,2.40
2018-09-25T14:04:28.927Z,1.83
2018-09-25T14:06:37.621Z,1.97
2018-09-25T14:08:45.612Z,1.83
2018-09-25T14:10:54.403Z,1.90
2018-09-25T14:13:04.641Z,1.90
2018-09-25T14:15:13.465Z,1.87
2018-09-25T14:17:21.311Z,1.83
2018-09-25T14:19:30.481Z,2.33
2018-09-25T14:21:38.346Z,2.03
2018-09-25T14:23:46.277Z,2.03
2018-09-25T14:25:55.213Z,2.00
2018-09-25T14:28:04.390Z,1.83
2018-09-25T14:30:14.733Z,1.90
2018-09-25T14:32:22.509Z,2.40
2018-09-25T14:34:30.428Z,1.83
2018-09-25T14:36:39.381Z,1.87
2018-09-25T14:38:50.255Z,2.07
2018-09-25T14:40:58.269Z,1.90
2018-09-25T14:43:07.109Z,2.40
2018-09-25T14:45:15.037Z,1.97
2018-09-25T14:47:22.818Z,2.03
2018-09-25T14:49:30.834Z,2.20
2018-09-25T14:51:38.750Z,2.33
2018-09-25T14:53:46.693Z,1.93
2018-09-25T14:55:54.645Z,1.80
2018-09-25T14:58:02.571Z,1.93
2018-09-25T15:00:10.676Z,1.97
2018-09-25T15:02:18.596Z,2.37
2018-09-25T15:04:26.575Z,2.23
2018-09-25T15:06:34.431Z,2.00
2018-09-25T15:08:42.400Z,2.00
2018-09-25T15:10:50.300Z,1.60
2018-09-25T15:12:58.045Z,1.97
2018-09-25T15:15:05.873Z,1.90
2018-09-25T15:17:13.865Z,1.60
2018-09-25T15:19:21.792Z,1.83
2018-09-25T15:21:29.776Z,2.20
2018-09-25T15:23:38.670Z,1.97
2018-09-25T15:25:46.593Z,2.10
2018-09-25T15:27:54.491Z,1.70
2018-09-25T15:30:02.374Z,2.10
2018-09-25T15:32:10.248Z,2.40
2018-09-25T15:34:18.162Z,2.20
2018-09-25T15:36:26.025Z,1.93
2018-09-25T15:38:33.962Z,1.47
2018-09-25T15:40:41.938Z,1.90
2018-09-25T15:42:49.804Z,2.30
2018-09-25T15:44:57.737Z,2.10
2018-09-25T15:47:05.733Z,1.87
2018-09-25T15:49:13.627Z,2.20
2018-09-25T15:51:21.446Z,2.50
2018-09-25T15:53:29.384Z,1.93
2018-09-25T15:55:37.282Z,2.10
2018-09-25T15:57:45.178Z,2.60
2018-09-25T15:59:53.132Z,2.03
2018-09-25T16:02:01.001Z,1.90
2018-09-25T16:04:09.080Z,1.97
2018-09-25T16:06:27.280Z,1.77
2018-09-25T16:08:35.078Z,2.03
2018-09-25T16:10:42.870Z,1.87
2018-09-25T16:12:50.862Z,1.90
2018-09-25T16:14:58.856Z,1.90
2018-09-25T16:17:06.830Z,2.13
2018-09-25T16:19:14.800Z,2.37
2018-09-25T16:21:22.775Z,1.70
2018-09-25T20:31:27.665Z,2.60
2018-09-25T20:33:35.631Z,2.27
2018-09-25T20:35:43.599Z,2.60
2018-09-25T20:37:51.543Z,3.70
2018-09-25T20:39:59.477Z,3.07
2018-09-25T20:42:07.453Z,3.40
2018-09-25T20:44:15.425Z,2.70
2018-09-25T20:46:23.321Z,3.40
2018-09-25T20:48:31.097Z,3.73
2018-09-25T20:50:38.895Z,2.90
2018-09-25T20:52:46.814Z,2.70
2018-09-25T20:54:54.572Z,2.50
2018-09-25T20:57:02.621Z,3.10
2018-09-25T20:59:10.510Z,3.27
2018-09-25T21:01:18.512Z,3.23
2018-09-25T21:03:26.633Z,3.23
2018-09-25T21:05:34.586Z,3.30
2018-09-25T21:07:42.491Z,3.33
2018-09-25T21:09:50.486Z,3.23
2018-09-25T21:11:58.445Z,2.93
2018-09-25T21:14:06.229Z,3.00
2018-09-25T21:16:14.026Z,2.80
2018-09-25T21:18:22.009Z,2.93
2018-09-25T21:20:29.945Z,3.40
2018-09-25T21:22:37.813Z,3.10
2018-09-25T21:24:45.795Z,3.20
2018-09-25T21:26:53.743Z,2.77
2018-09-25T21:29:01.637Z,3.23
2018-09-25T21:31:09.688Z,3.30
2018-09-25T21:33:17.589Z,3.60
2018-09-25T21:35:25.526Z,3.00
2018-09-25T21:37:33.406Z,3.20
2018-09-25T21:39:41.289Z,3.60
2018-09-25T21:41:49.135Z,3.47
2018-09-25T21:43:57.031Z,3.30
2018-09-25T21:46:04.881Z,3.67
2018-09-25T21:48:12.713Z,3.07
2018-09-25T21:50:20.612Z,2.83
2018-09-25T21:52:28.570Z,3.60
2018-09-25T21:54:36.405Z,3.50
2018-09-25T21:56:44.347Z,3.50
2018-09-25T21:58:52.250Z,3.10
2018-09-25T22:01:00.071Z,2.80
2018-09-25T22:03:07.921Z,2.20
2018-09-25T22:05:15.789Z,2.70
2018-09-25T22:07:23.543Z,2.87
2018-09-25T22:09:31.448Z,2.23
2018-09-25T22:11:39.521Z,2.83
2018-09-25T22:13:47.426Z,2.23
2018-09-25T22:15:55.334Z,2.40
2018-09-25T22:18:03.349Z,2.13
2018-09-25T22:20:11.397Z,2.70
2018-09-25T22:22:19.507Z,2.40
2018-09-25T22:24:27.477Z,2.13
2018-09-25T22:26:35.424Z,2.60
2018-09-25T22:28:43.340Z,2.07
2018-09-25T22:30:51.361Z,2.90
2018-09-25T22:32:59.252Z,2.80
2018-09-25T22:35:07.139Z,2.30
2018-09-25T22:37:15.033Z,2.60
2018-09-25T22:39:23.017Z,2.33
2018-09-25T22:41:30.941Z,2.67
2018-09-25T22:43:38.911Z,2.83
2018-09-25T22:45:46.980Z,2.40
2018-09-25T22:47:54.934Z,2.63
2018-09-25T22:50:02.790Z,2.57
2018-09-25T22:52:10.749Z,3.10
2018-09-25T22:54:18.641Z,2.67
2018-09-25T22:56:26.516Z,2.67
2018-09-25T22:58:34.436Z,2.60
2018-09-25T23:00:42.416Z,2.90
2018-09-25T23:02:50.244Z,2.97
2018-09-25T23:04:58.117Z,2.90
2018-09-25T23:07:05.999Z,2.67
2018-09-25T23:09:13.901Z,2.40
2018-09-25T23:11:21.817Z,2.80
2018-09-25T23:13:29.726Z,2.83
2018-09-25T23:15:37.653Z,2.60
2018-09-25T23:17:45.549Z,2.70
2018-09-25T23:19:53.457Z,2.83
2018-09-25T23:22:01.382Z,2.77
2018-09-25T23:24:09.311Z,2.53
2018-09-25T23:26:17.131Z,2.93
2018-09-25T23:28:25.061Z,3.00
2018-09-25T23:30:32.941Z,2.80
2018-09-25T23:32:40.933Z,2.60
2018-09-25T23:34:48.817Z,3.03
2018-09-25T23:36:56.715Z,2.80
2018-09-25T23:39:04.629Z,2.67
2018-09-25T23:41:14.082Z,2.60
2018-09-25T23:43:23.810Z,2.30
2018-09-25T23:46:31.688Z,2.87
2018-09-25T23:48:39.473Z,2.80
2018-09-25T23:52:49.671Z,2.73
2018-09-25T23:54:55.365Z,2.33
2018-09-25T23:57:00.061Z,2.50
2018-09-25T23:59:11.821Z,2.77
